Champion, Ohio
Current Conditions -  °F | °C
As of 4:51 AM on Saturday 25 Oct 2014 (Local Time) from KYNG Reporting Station
Scattered Clouds Scattered Clouds  
Wind Chill: 47°   Ceiling: Unl
Heat Index: 47°   Visibility: 10mi
Dew Point: 39°   Wind: 3mph
Humidity: 74%   Direction: 230°SW
Pressure: 29.93"   Gusts: NA
Location:  41.2735°N, 80.8217°W
Report Text: KYNG 250851Z 23003KT 10SM SCT043 08/04 A2993 RMK AO2 SLP135 T00830039 58016 $
Loading
Personal Weather Stations






























Interactive Weather Map
Tropical Storm Tracking
New forecast layout! Learn more

10-Day Weather Forecast

Advertisements
Track Severe Weather on mobile